createdAt,value
2023-03-17T00:00:43.176Z,14.27
2023-03-17T00:03:19.603Z,11.32
2023-03-17T00:05:46.847Z,14.65
2023-03-17T00:08:23.135Z,9.25
2023-03-17T00:10:51.114Z,10.00
2023-03-17T00:13:18.937Z,9.93
2023-03-17T00:15:49.493Z,9.50
2023-03-17T00:18:18.430Z,12.18
2023-03-17T00:20:47.089Z,19.48
2023-03-17T00:23:20.599Z,18.73
2023-03-17T00:25:48.810Z,18.98
2023-03-17T00:28:21.055Z,17.58
2023-03-17T00:30:51.649Z,17.00
2023-03-17T00:33:21.120Z,11.85
2023-03-17T00:35:48.874Z,14.65
2023-03-17T00:38:17.633Z,13.13
2023-03-17T00:40:49.087Z,9.90
2023-03-17T00:43:17.026Z,10.57
2023-03-17T00:45:44.485Z,12.27
2023-03-17T00:48:20.773Z,11.35
2023-03-17T00:50:49.780Z,11.60
2023-03-17T00:53:20.490Z,13.38
2023-03-17T00:55:48.580Z,10.55
2023-03-17T00:58:29.275Z,9.38
2023-03-17T01:00:56.844Z,10.35
2023-03-17T01:03:24.899Z,10.20
2023-03-17T01:05:54.173Z,9.95
2023-03-17T01:08:22.655Z,9.35
2023-03-17T01:10:50.056Z,7.82
2023-03-17T01:13:19.833Z,11.80
2023-03-17T01:15:48.835Z,12.00
2023-03-17T01:18:18.832Z,6.75
2023-03-17T01:20:46.285Z,11.80
2023-03-17T01:23:14.278Z,12.90
2023-03-17T01:25:42.757Z,8.70
2023-03-17T01:28:15.039Z,8.25
2023-03-17T01:30:42.660Z,13.32
2023-03-17T01:33:11.172Z,7.95
2023-03-17T01:35:39.172Z,8.50
2023-03-17T01:38:07.173Z,12.95
2023-03-17T01:40:42.906Z,9.65
2023-03-17T01:43:10.309Z,10.80
2023-03-17T01:46:06.593Z,8.98
2023-03-17T01:48:40.730Z,8.73
2023-03-17T01:51:09.839Z,12.25
2023-03-17T01:53:38.612Z,7.95
2023-03-17T01:56:06.439Z,8.27
2023-03-17T01:58:34.355Z,8.45
2023-03-17T02:01:02.021Z,6.55
2023-03-17T02:03:29.922Z,10.20
2023-03-17T02:05:57.986Z,12.57
2023-03-17T02:08:26.348Z,12.98
2023-03-17T02:10:54.347Z,14.07
2023-03-17T02:13:21.994Z,10.98
2023-03-17T02:15:53.025Z,12.88
2023-03-17T02:18:24.194Z,12.40
2023-03-17T02:21:31.575Z,10.48
2023-03-17T02:24:01.694Z,7.68
2023-03-17T02:26:31.652Z,7.57
2023-03-17T02:28:59.221Z,7.70
2023-03-17T02:31:27.292Z,14.25
2023-03-17T02:33:54.792Z,11.75
2023-03-17T02:36:22.264Z,9.23
2023-03-17T02:38:49.842Z,8.88
2023-03-17T02:41:17.531Z,53.58
2023-03-17T02:43:44.832Z,16.10
2023-03-17T02:46:12.348Z,15.50
2023-03-17T02:48:40.531Z,10.55
2023-03-17T02:51:08.050Z,7.40
2023-03-17T02:53:35.291Z,10.40
2023-03-17T02:56:02.858Z,18.35
2023-03-17T02:58:29.999Z,10.15
2023-03-17T03:00:57.195Z,12.30
2023-03-17T03:03:24.678Z,8.93
2023-03-17T03:05:52.008Z,11.95
2023-03-17T03:08:19.328Z,26.90
2023-03-17T03:10:46.828Z,53.72
2023-03-17T03:13:14.059Z,51.20
2023-03-17T03:15:42.811Z,36.03
2023-03-17T03:18:10.357Z,52.33
2023-03-17T03:20:37.524Z,42.85
2023-03-17T03:23:04.811Z,42.40
2023-03-17T03:25:32.288Z,28.52
2023-03-17T03:27:59.463Z,19.35
2023-03-17T03:30:27.097Z,18.65
2023-03-17T03:32:54.610Z,15.52
2023-03-17T03:35:21.785Z,14.35
2023-03-17T03:37:48.971Z,18.20
2023-03-17T03:40:16.963Z,13.70
2023-03-17T03:42:44.136Z,14.93
2023-03-17T03:45:11.467Z,15.55
2023-03-17T03:47:38.929Z,16.58
2023-03-17T03:50:06.833Z,13.65
2023-03-17T03:52:34.686Z,16.15
2023-03-17T03:55:02.229Z,16.90
2023-03-17T03:57:29.451Z,15.98
2023-03-17T03:59:56.645Z,13.68
2023-03-17T04:02:24.183Z,26.55
2023-03-17T04:04:51.805Z,11.05
2023-03-17T04:07:19.054Z,13.57
2023-03-17T04:09:46.227Z,9.65
2023-03-17T04:12:13.757Z,10.38
2023-03-17T04:14:41.268Z,7.00
2023-03-17T04:17:09.064Z,10.00
2023-03-17T04:19:36.693Z,8.75
2023-03-17T04:22:05.061Z,15.68
2023-03-17T04:24:32.477Z,8.75
2023-03-17T04:27:00.052Z,12.70
2023-03-17T04:29:28.032Z,11.85
2023-03-17T04:31:55.281Z,13.40
2023-03-17T04:34:23.104Z,14.55
2023-03-17T04:36:50.341Z,16.05
2023-03-17T04:39:18.133Z,14.87
2023-03-17T04:41:46.504Z,9.57
2023-03-17T04:44:13.778Z,13.52
2023-03-17T04:46:41.037Z,36.80
2023-03-17T04:49:08.615Z,17.73
2023-03-17T04:51:36.910Z,13.30
2023-03-17T04:54:04.675Z,17.33
2023-03-17T04:56:32.240Z,20.37
2023-03-17T04:59:00.127Z,10.80
2023-03-17T05:01:27.413Z,39.80
2023-03-17T05:03:55.082Z,17.35
2023-03-17T05:06:22.409Z,10.70
2023-03-17T05:08:49.657Z,15.85
2023-03-17T05:11:18.040Z,10.15
2023-03-17T05:13:45.706Z,11.88
2023-03-17T05:16:12.956Z,6.75
2023-03-17T05:18:44.035Z,31.42
2023-03-17T05:21:11.327Z,16.92
2023-03-17T05:23:38.846Z,61.70
2023-03-17T05:26:06.631Z,70.05
2023-03-17T05:28:34.024Z,37.85
2023-03-17T05:31:01.465Z,71.25
2023-03-17T05:33:29.262Z,113.82
2023-03-17T05:35:57.443Z,49.40
2023-03-17T05:38:25.778Z,29.23
2023-03-17T05:40:53.588Z,26.83
2023-03-17T05:43:21.698Z,14.57
2023-03-17T05:45:50.598Z,43.67
2023-03-17T05:48:18.209Z,23.83
2023-03-17T05:50:45.950Z,26.90
2023-03-17T05:53:13.243Z,38.70
2023-03-17T05:55:41.459Z,25.98
2023-03-17T05:58:09.596Z,55.75
2023-03-17T06:00:37.737Z,36.70
2023-03-17T06:03:05.599Z,27.33
2023-03-17T06:05:33.004Z,51.47
2023-03-17T06:08:00.742Z,22.35
2023-03-17T06:10:29.123Z,29.60
2023-03-17T06:12:57.120Z,12.40
2023-03-17T06:15:24.869Z,36.05
2023-03-17T06:17:55.157Z,54.50
2023-03-17T06:20:22.407Z,49.30
2023-03-17T06:23:03.294Z,57.17
2023-03-17T06:25:32.318Z,21.10
2023-03-17T06:28:02.564Z,17.25
2023-03-17T06:30:31.427Z,24.60
2023-03-17T06:32:59.017Z,23.42
2023-03-17T06:35:26.335Z,17.98
2023-03-17T06:37:54.066Z,19.55
2023-03-17T06:40:21.608Z,27.80
2023-03-17T06:42:48.806Z,14.32
2023-03-17T06:45:16.360Z,15.20
2023-03-17T06:47:44.054Z,25.80
2023-03-17T06:50:12.248Z,18.30
2023-03-17T06:52:40.139Z,21.30
2023-03-17T06:55:08.594Z,16.67
2023-03-17T06:57:36.557Z,15.25
2023-03-17T07:00:08.434Z,20.77
2023-03-17T07:02:36.036Z,26.40
2023-03-17T07:05:06.339Z,29.37
2023-03-17T07:07:35.496Z,14.77
2023-03-17T07:10:03.917Z,12.35
2023-03-17T07:12:31.495Z,14.50
2023-03-17T07:14:59.307Z,14.57
2023-03-17T07:17:26.868Z,13.38
2023-03-17T07:19:54.308Z,12.50
2023-03-17T07:22:22.092Z,14.87
2023-03-17T07:24:49.707Z,11.52
2023-03-17T07:27:16.962Z,12.73
2023-03-17T07:29:44.322Z,15.73
2023-03-17T07:32:12.056Z,26.12
2023-03-17T07:34:39.292Z,13.20
2023-03-17T07:37:07.057Z,11.38
2023-03-17T07:39:34.832Z,14.52
2023-03-17T07:42:02.280Z,13.75
2023-03-17T07:44:30.503Z,10.32
2023-03-17T07:46:58.065Z,245.25
2023-03-17T07:49:40.415Z,13.27
2023-03-17T07:52:10.579Z,14.40
2023-03-17T07:54:38.019Z,14.63
2023-03-17T07:57:06.335Z,26.17
2023-03-17T07:59:34.193Z,14.70
2023-03-17T08:02:01.685Z,15.32
2023-03-17T08:04:29.507Z,13.20
2023-03-17T08:06:57.671Z,14.45
2023-03-17T08:09:25.144Z,18.45
2023-03-17T08:11:52.824Z,16.62
2023-03-17T08:14:20.472Z,12.75
2023-03-17T08:16:48.186Z,12.25
2023-03-17T08:19:16.316Z,11.00
2023-03-17T08:21:43.844Z,24.37
2023-03-17T08:24:11.933Z,12.80
2023-03-17T08:26:39.453Z,9.70
2023-03-17T08:29:08.072Z,20.83
2023-03-17T08:31:35.954Z,10.30
2023-03-17T08:34:04.803Z,11.52
2023-03-17T08:36:32.098Z,9.32
2023-03-17T08:38:59.326Z,7.35
2023-03-17T08:41:28.174Z,20.85
2023-03-17T08:43:56.245Z,9.88
2023-03-17T08:46:26.078Z,13.57
2023-03-17T08:48:56.291Z,12.05
2023-03-17T08:51:28.904Z,6.87
2023-03-17T08:53:57.038Z,10.10
2023-03-17T08:56:24.373Z,10.95
2023-03-17T08:58:51.907Z,4.25
2023-03-17T09:01:21.261Z,5.43
2023-03-17T09:03:49.604Z,5.45
2023-03-17T09:06:17.002Z,8.63
2023-03-17T09:08:47.306Z,9.50
2023-03-17T09:11:17.179Z,8.82
2023-03-17T09:13:46.509Z,7.10
2023-03-17T09:16:16.191Z,8.10
2023-03-17T09:18:44.820Z,8.00
2023-03-17T09:21:13.938Z,15.68
2023-03-17T09:23:41.560Z,292.15
2023-03-17T09:26:09.102Z,7.30
2023-03-17T09:28:37.316Z,9.18
2023-03-17T09:31:06.302Z,96.87
2023-03-17T09:33:33.590Z,9.48
2023-03-17T09:36:01.551Z,13.68
2023-03-17T09:38:28.752Z,6.60
2023-03-17T09:40:56.235Z,83.40
2023-03-17T09:43:42.932Z,9.82
2023-03-17T09:46:35.207Z,16.27
2023-03-17T09:49:11.882Z,5.57
2023-03-17T09:51:39.421Z,37.33
2023-03-17T09:54:19.155Z,6.85
2023-03-17T09:56:49.233Z,26.12
2023-03-17T09:59:29.034Z,7.97
2023-03-17T10:01:57.022Z,3.15
2023-03-17T10:04:24.758Z,6.65
2023-03-17T10:06:53.396Z,8.63
2023-03-17T10:09:42.883Z,6.75
2023-03-17T10:12:15.274Z,5.80
2023-03-17T10:14:54.925Z,6.75
2023-03-17T10:17:26.148Z,6.22
2023-03-17T10:19:56.169Z,6.80
2023-03-17T10:22:31.696Z,8.30
2023-03-17T10:25:03.859Z,5.07
2023-03-17T10:27:34.933Z,9.80
2023-03-17T10:30:02.165Z,7.53
2023-03-17T10:32:31.115Z,8.38
2023-03-17T10:34:58.569Z,7.50
2023-03-17T10:37:27.291Z,6.45
2023-03-17T10:39:56.879Z,7.85
2023-03-17T10:42:29.154Z,6.97
2023-03-17T10:45:07.521Z,8.32
2023-03-17T10:47:39.625Z,14.10
2023-03-17T10:50:16.299Z,10.38
2023-03-17T10:52:47.477Z,13.50
2023-03-17T10:55:15.857Z,17.83
2023-03-17T10:57:56.878Z,5.93
2023-03-17T11:00:24.733Z,7.90
2023-03-17T11:02:59.555Z,12.27
2023-03-17T11:05:29.401Z,10.88
2023-03-17T11:08:17.744Z,8.40
2023-03-17T11:10:45.794Z,9.93
2023-03-17T11:13:17.284Z,9.48
2023-03-17T11:15:50.163Z,4.85
2023-03-17T11:18:22.853Z,7.85
2023-03-17T11:21:10.474Z,18.50
2023-03-17T11:23:49.944Z,8.43
2023-03-17T11:26:24.306Z,15.02
2023-03-17T11:29:21.108Z,7.05
2023-03-17T11:31:54.929Z,13.90
2023-03-17T11:34:48.099Z,7.97
2023-03-17T11:37:18.305Z,4.90
2023-03-17T11:39:52.821Z,14.23
2023-03-17T11:42:20.534Z,7.70
2023-03-17T11:45:25.578Z,4.82
2023-03-17T11:48:17.870Z,8.60
2023-03-17T11:51:15.377Z,10.15
2023-03-17T11:53:49.991Z,5.47
2023-03-17T11:58:50.857Z,8.52
2023-03-17T12:01:32.717Z,7.65
2023-03-17T12:04:25.815Z,5.40
2023-03-17T12:06:59.501Z,7.43
2023-03-17T12:09:38.461Z,13.77
2023-03-17T12:12:06.305Z,7.10
2023-03-17T12:14:39.493Z,5.93
2023-03-17T12:17:16.124Z,15.50
2023-03-17T12:20:06.862Z,9.50
2023-03-17T12:22:43.006Z,5.93
2023-03-17T12:25:28.011Z,10.15
2023-03-17T12:28:01.293Z,7.95
2023-03-17T12:30:41.127Z,6.95
2023-03-17T12:33:23.709Z,28.15
2023-03-17T12:35:52.083Z,4.30
2023-03-17T12:38:25.369Z,8.63
2023-03-17T12:40:52.786Z,5.32
2023-03-17T12:43:36.111Z,8.00
2023-03-17T12:46:24.552Z,4.97
2023-03-17T12:49:27.058Z,4.75
2023-03-17T12:52:09.455Z,5.28
2023-03-17T12:54:50.045Z,5.20
2023-03-17T12:57:39.288Z,12.98
2023-03-17T13:00:18.465Z,5.37
2023-03-17T13:02:49.908Z,5.28
2023-03-17T13:05:19.571Z,6.78
2023-03-17T13:07:55.689Z,15.10
2023-03-17T13:10:47.530Z,13.23
2023-03-17T13:13:46.587Z,5.55
2023-03-17T13:16:39.232Z,5.62
2023-03-17T13:19:12.437Z,8.10
2023-03-17T13:22:04.250Z,7.70
2023-03-17T13:24:48.278Z,10.90
2023-03-17T13:27:31.029Z,3.45
2023-03-17T13:30:00.142Z,9.65
2023-03-17T13:32:27.300Z,8.90
2023-03-17T13:35:15.981Z,8.02
2023-03-17T13:37:43.463Z,7.30
2023-03-17T13:40:30.258Z,4.57
2023-03-17T13:43:16.325Z,5.20
2023-03-17T13:45:45.842Z,3.53
2023-03-17T13:48:29.756Z,6.32
2023-03-17T13:51:18.342Z,8.23
2023-03-17T13:53:50.977Z,5.62
2023-03-17T13:56:25.156Z,4.82
2023-03-17T13:59:01.785Z,9.95
2023-03-17T14:01:34.549Z,5.93
2023-03-17T14:04:08.193Z,12.70
2023-03-17T14:06:38.064Z,4.53
2023-03-17T14:09:16.677Z,7.12
2023-03-17T14:11:46.257Z,5.05
2023-03-17T14:14:44.838Z,6.65
2023-03-17T14:17:37.067Z,8.15
2023-03-17T14:20:21.594Z,6.72
2023-03-17T14:25:39.021Z,8.07
2023-03-17T14:28:10.988Z,6.47
2023-03-17T14:30:39.032Z,5.60
2023-03-17T14:33:12.023Z,10.63
2023-03-17T14:35:44.680Z,15.55
2023-03-17T14:38:25.773Z,10.45
2023-03-17T14:41:16.548Z,9.65
2023-03-17T14:43:44.311Z,13.25
2023-03-17T14:46:25.319Z,16.73
2023-03-17T14:48:58.486Z,6.90
2023-03-17T14:51:30.858Z,19.92
2023-03-17T14:54:00.595Z,19.50
2023-03-17T14:56:39.077Z,6.62
2023-03-17T14:59:15.449Z,9.02
2023-03-17T15:01:45.482Z,6.82
2023-03-17T15:04:12.609Z,7.95
2023-03-17T15:06:55.629Z,86.47
2023-03-17T15:09:40.596Z,16.55
2023-03-17T15:12:19.073Z,7.87
2023-03-17T15:14:47.036Z,11.55
2023-03-17T15:17:19.890Z,6.82
2023-03-17T15:19:52.903Z,8.65
2023-03-17T15:22:26.068Z,5.87
2023-03-17T15:25:02.535Z,6.75
2023-03-17T15:27:31.649Z,12.52
2023-03-17T15:29:59.272Z,8.30
2023-03-17T15:32:27.420Z,28.20
2023-03-17T15:34:59.008Z,11.43
2023-03-17T15:37:29.498Z,12.68
2023-03-17T15:39:57.226Z,13.00
2023-03-17T15:42:34.109Z,9.80
2023-03-17T15:45:01.902Z,12.20
2023-03-17T15:47:33.793Z,9.10
2023-03-17T15:50:29.347Z,16.65
2023-03-17T15:52:57.806Z,19.80
2023-03-17T15:55:29.492Z,11.63
2023-03-17T15:57:57.695Z,20.77
2023-03-17T16:00:29.097Z,211.07
2023-03-17T16:03:13.142Z,35.60
2023-03-17T16:05:40.327Z,49.15
2023-03-17T16:08:13.917Z,46.78
2023-03-17T16:10:41.680Z,42.40
2023-03-17T16:13:09.532Z,40.58
2023-03-17T16:15:42.200Z,24.23
2023-03-17T16:18:16.768Z,22.75
2023-03-17T16:20:46.953Z,37.17
2023-03-17T16:23:17.275Z,35.15
2023-03-17T16:25:44.765Z,54.90
2023-03-17T16:28:19.579Z,30.73
2023-03-17T16:30:48.443Z,94.30
2023-03-17T16:33:21.970Z,114.78
2023-03-17T16:35:52.332Z,68.03
2023-03-17T16:38:22.515Z,181.27
2023-03-17T16:40:59.223Z,190.32
2023-03-17T16:43:32.128Z,201.95
2023-03-17T16:46:02.278Z,204.20
2023-03-17T16:48:29.640Z,226.40
2023-03-17T16:50:57.390Z,187.93
2023-03-17T16:53:25.093Z,426.15
2023-03-17T16:55:53.638Z,170.62
2023-03-17T16:58:25.822Z,207.27
2023-03-17T17:00:57.708Z,240.07
2023-03-17T17:03:25.870Z,135.07
2023-03-17T17:05:53.296Z,306.92
2023-03-17T17:08:20.444Z,137.43
2023-03-17T17:10:47.653Z,140.57
2023-03-17T17:13:16.552Z,257.20
2023-03-17T17:15:43.830Z,127.35
2023-03-17T17:18:21.631Z,80.20
2023-03-17T17:20:49.412Z,123.18
2023-03-17T17:23:21.772Z,92.47
2023-03-17T17:25:50.227Z,65.37
2023-03-17T17:28:19.497Z,67.97
2023-03-17T17:30:48.040Z,52.60
2023-03-17T17:33:16.864Z,43.15
2023-03-17T17:35:44.562Z,66.43
2023-03-17T17:38:23.061Z,53.90
2023-03-17T17:40:54.878Z,74.78
2023-03-17T17:43:22.475Z,109.82
2023-03-17T17:45:49.972Z,134.48
2023-03-17T17:48:19.500Z,127.50
2023-03-17T17:50:46.637Z,96.00
2023-03-17T17:53:14.814Z,89.65
2023-03-17T17:55:44.150Z,83.57
2023-03-17T17:58:22.753Z,59.47
2023-03-17T18:00:51.234Z,62.80
2023-03-17T18:03:22.324Z,90.53
2023-03-17T18:05:49.608Z,52.70
2023-03-17T18:08:17.037Z,60.03
2023-03-17T18:10:44.388Z,300.48
2023-03-17T18:13:11.551Z,63.87
2023-03-17T18:15:38.736Z,71.62
2023-03-17T18:18:06.725Z,85.70
2023-03-17T18:20:34.032Z,87.30
2023-03-17T18:23:01.812Z,72.47
2023-03-17T18:25:29.792Z,78.40
2023-03-17T18:27:57.095Z,100.18
2023-03-17T18:30:26.647Z,146.02
2023-03-17T18:33:00.964Z,136.12
2023-03-17T18:35:28.858Z,177.52
2023-03-17T18:37:57.548Z,132.65
2023-03-17T18:40:26.029Z,141.40
2023-03-17T18:42:53.999Z,66.10
2023-03-17T18:45:21.481Z,225.87
2023-03-17T18:47:48.611Z,110.97
2023-03-17T18:50:16.626Z,93.15
2023-03-17T18:52:44.969Z,77.93
2023-03-17T18:55:13.838Z,70.50
2023-03-17T18:57:43.961Z,109.97
2023-03-17T19:00:14.020Z,63.60
2023-03-17T19:02:41.222Z,81.12
2023-03-17T19:05:08.773Z,142.90
2023-03-17T19:07:37.958Z,72.20
2023-03-17T19:10:07.885Z,50.72
2023-03-17T19:12:35.412Z,69.82
2023-03-17T19:15:02.944Z,71.80
2023-03-17T19:17:30.578Z,107.43
2023-03-17T19:19:58.003Z,56.55
2023-03-17T19:22:25.162Z,57.78
2023-03-17T19:24:53.308Z,84.53
2023-03-17T19:27:20.708Z,72.25
2023-03-17T19:29:47.831Z,49.33
2023-03-17T19:32:16.219Z,39.67
2023-03-17T19:34:43.840Z,48.10
2023-03-17T19:37:11.110Z,65.62
2023-03-17T19:39:38.251Z,52.13
2023-03-17T19:42:05.846Z,60.63
2023-03-17T19:44:33.691Z,66.15
2023-03-17T19:47:04.981Z,42.13
2023-03-17T19:49:34.727Z,61.75
2023-03-17T19:52:04.085Z,36.85
2023-03-17T19:54:31.449Z,44.45
2023-03-17T19:56:58.886Z,35.10
2023-03-17T19:59:26.098Z,98.22
2023-03-17T20:01:53.292Z,126.47
2023-03-17T20:04:22.310Z,53.22
2023-03-17T20:06:55.188Z,54.03
2023-03-17T20:09:24.784Z,39.67
2023-03-17T20:11:53.339Z,50.78
2023-03-17T20:14:20.777Z,48.67
2023-03-17T20:16:48.751Z,57.60
2023-03-17T20:19:18.691Z,30.25
2023-03-17T20:21:45.901Z,33.05
2023-03-17T20:24:14.734Z,31.55
2023-03-17T20:26:43.351Z,23.73
2023-03-17T20:29:14.452Z,24.10
2023-03-17T20:31:42.215Z,21.17
2023-03-17T20:34:10.387Z,27.37
2023-03-17T20:36:42.245Z,27.83
2023-03-17T20:39:13.726Z,24.75
2023-03-17T20:41:41.341Z,21.77
2023-03-17T20:44:08.506Z,21.02
2023-03-17T20:46:36.119Z,27.83
2023-03-17T20:49:04.112Z,29.50
2023-03-17T20:51:32.322Z,40.83
2023-03-17T20:54:00.807Z,49.63
2023-03-17T20:56:29.892Z,40.58
2023-03-17T20:58:58.486Z,49.90
2023-03-17T21:01:26.852Z,69.10
2023-03-17T21:03:54.015Z,61.45
2023-03-17T21:06:21.479Z,36.90
2023-03-17T21:08:49.806Z,29.67
2023-03-17T21:11:19.976Z,38.72
2023-03-17T21:13:47.634Z,103.22
2023-03-17T21:16:21.470Z,174.25
2023-03-17T21:18:48.784Z,71.00
2023-03-17T21:21:16.659Z,70.85
2023-03-17T21:23:44.517Z,41.53
2023-03-17T21:26:12.476Z,41.92
2023-03-17T21:28:41.605Z,47.92
2023-03-17T21:31:10.057Z,73.57
2023-03-17T21:33:37.264Z,47.17
2023-03-17T21:36:05.785Z,38.45
2023-03-17T21:38:32.918Z,50.88
2023-03-17T21:41:32.146Z,56.33
2023-03-17T21:44:00.476Z,42.83
2023-03-17T21:46:27.913Z,43.72
2023-03-17T21:48:56.019Z,40.58
2023-03-17T21:51:24.414Z,34.15
2023-03-17T21:53:52.917Z,49.85
2023-03-17T21:56:20.999Z,44.20
2023-03-17T21:58:49.092Z,51.37
2023-03-17T22:01:18.523Z,47.35
2023-03-17T22:03:46.159Z,44.20
2023-03-17T22:06:14.476Z,56.08
2023-03-17T22:08:41.867Z,64.18
2023-03-17T22:11:15.525Z,52.85
2023-03-17T22:13:43.185Z,52.97
2023-03-17T22:16:11.700Z,54.20
2023-03-17T22:18:39.427Z,68.60
2023-03-17T22:21:08.168Z,102.20
2023-03-17T22:23:41.261Z,115.37
2023-03-17T22:26:11.550Z,95.15
2023-03-17T22:28:39.416Z,57.83
2023-03-17T22:31:21.696Z,67.50
2023-03-17T22:33:52.293Z,70.93
2023-03-17T22:36:19.552Z,74.90
2023-03-17T22:38:46.959Z,69.75
2023-03-17T22:41:17.202Z,83.70
2023-03-17T22:43:45.328Z,56.25
2023-03-17T22:46:13.779Z,57.35
2023-03-17T22:48:41.436Z,48.72
2023-03-17T22:51:14.596Z,46.47
2023-03-17T22:53:42.168Z,63.77
2023-03-17T22:56:10.994Z,61.28
2023-03-17T22:58:38.693Z,35.63
2023-03-17T23:01:06.962Z,38.95
2023-03-17T23:03:34.343Z,35.85
2023-03-17T23:06:03.862Z,38.47
2023-03-17T23:08:35.012Z,37.70
2023-03-17T23:11:07.622Z,37.20
2023-03-17T23:13:35.576Z,27.83
2023-03-17T23:16:04.618Z,33.22
2023-03-17T23:18:32.355Z,35.55
2023-03-17T23:21:00.867Z,29.20
2023-03-17T23:23:28.452Z,36.85
2023-03-17T23:25:56.275Z,35.28
2023-03-17T23:28:24.146Z,44.05
2023-03-17T23:30:52.317Z,38.20
2023-03-17T23:33:21.622Z,29.83
2023-03-17T23:35:50.496Z,23.23
2023-03-17T23:38:19.604Z,29.35
2023-03-17T23:40:47.781Z,36.53
2023-03-17T23:43:15.328Z,34.75
2023-03-17T23:45:42.827Z,33.97
2023-03-17T23:48:10.333Z,32.13
2023-03-17T23:50:39.693Z,30.17
2023-03-17T23:53:06.874Z,26.58
2023-03-17T23:55:33.996Z,28.67
2023-03-17T23:58:01.583Z,29.00
